sensor_id;sensor_type;location;lat;lon;timestamp;P1;durP1;ratioP1;P2;durP2;ratioP2
52948;SDS011;38812;50.942;3.644;2023-01-31T00:01:05;28.80;;;8.85;;
52948;SDS011;38812;50.942;3.644;2023-01-31T00:03:32;33.45;;;9.50;;
52948;SDS011;38812;50.942;3.644;2023-01-31T00:05:57;26.83;;;6.38;;
52948;SDS011;38812;50.942;3.644;2023-01-31T00:08:23;33.08;;;8.07;;
52948;SDS011;38812;50.942;3.644;2023-01-31T00:10:48;36.05;;;8.80;;
52948;SDS011;38812;50.942;3.644;2023-01-31T00:13:14;37.63;;;7.28;;
52948;SDS011;38812;50.942;3.644;2023-01-31T00:15:39;26.83;;;7.40;;
52948;SDS011;38812;50.942;3.644;2023-01-31T00:18:04;39.75;;;7.40;;
52948;SDS011;38812;50.942;3.644;2023-01-31T00:20:30;33.05;;;7.38;;
52948;SDS011;38812;50.942;3.644;2023-01-31T00:22:56;21.85;;;7.30;;
52948;SDS011;38812;50.942;3.644;2023-01-31T00:25:22;29.33;;;6.57;;
52948;SDS011;38812;50.942;3.644;2023-01-31T00:27:47;27.23;;;5.53;;
52948;SDS011;38812;50.942;3.644;2023-01-31T00:30:13;34.17;;;7.10;;
52948;SDS011;38812;50.942;3.644;2023-01-31T00:32:38;25.20;;;7.82;;
52948;SDS011;38812;50.942;3.644;2023-01-31T00:35:04;29.40;;;7.68;;
52948;SDS011;38812;50.942;3.644;2023-01-31T00:37:29;31.23;;;7.93;;
52948;SDS011;38812;50.942;3.644;2023-01-31T00:39:55;30.55;;;7.22;;
52948;SDS011;38812;50.942;3.644;2023-01-31T00:42:20;20.45;;;6.35;;
52948;SDS011;38812;50.942;3.644;2023-01-31T00:44:45;32.88;;;8.27;;
52948;SDS011;38812;50.942;3.644;2023-01-31T00:47:11;30.83;;;6.45;;
52948;SDS011;38812;50.942;3.644;2023-01-31T00:49:36;29.23;;;7.53;;
52948;SDS011;38812;50.942;3.644;2023-01-31T00:52:02;32.80;;;8.73;;
52948;SDS011;38812;50.942;3.644;2023-01-31T00:54:28;47.03;;;10.30;;
52948;SDS011;38812;50.942;3.644;2023-01-31T00:56:53;35.83;;;6.57;;
52948;SDS011;38812;50.942;3.644;2023-01-31T00:59:19;37.10;;;8.60;;
52948;SDS011;38812;50.942;3.644;2023-01-31T01:01:44;38.20;;;7.88;;
52948;SDS011;38812;50.942;3.644;2023-01-31T01:04:10;36.38;;;7.60;;
52948;SDS011;38812;50.942;3.644;2023-01-31T01:06:37;34.95;;;6.38;;
52948;SDS011;38812;50.942;3.644;2023-01-31T01:09:05;27.83;;;7.25;;
52948;SDS011;38812;50.942;3.644;2023-01-31T01:11:31;32.17;;;7.22;;
52948;SDS011;38812;50.942;3.644;2023-01-31T01:13:58;42.22;;;8.25;;
52948;SDS011;38812;50.942;3.644;2023-01-31T01:16:25;30.35;;;6.95;;
52948;SDS011;38812;50.942;3.644;2023-01-31T01:18:55;39.65;;;8.27;;
52948;SDS011;38812;50.942;3.644;2023-01-31T01:21:24;34.35;;;8.10;;
52948;SDS011;38812;50.942;3.644;2023-01-31T01:23:51;32.83;;;8.77;;
52948;SDS011;38812;50.942;3.644;2023-01-31T01:26:23;30.83;;;7.95;;
52948;SDS011;38812;50.942;3.644;2023-01-31T01:28:50;26.20;;;8.30;;
52948;SDS011;38812;50.942;3.644;2023-01-31T01:31:17;35.40;;;9.18;;
52948;SDS011;38812;50.942;3.644;2023-01-31T01:33:45;30.58;;;8.55;;
52948;SDS011;38812;50.942;3.644;2023-01-31T01:36:12;29.33;;;8.00;;
52948;SDS011;38812;50.942;3.644;2023-01-31T01:38:41;21.67;;;7.28;;
52948;SDS011;38812;50.942;3.644;2023-01-31T01:41:08;31.38;;;8.43;;
52948;SDS011;38812;50.942;3.644;2023-01-31T01:43:48;27.45;;;8.82;;
52948;SDS011;38812;50.942;3.644;2023-01-31T01:46:27;30.58;;;8.13;;
52948;SDS011;38812;50.942;3.644;2023-01-31T01:51:38;33.28;;;8.77;;
52948;SDS011;38812;50.942;3.644;2023-01-31T01:54:07;24.92;;;7.32;;
52948;SDS011;38812;50.942;3.644;2023-01-31T01:56:38;31.92;;;8.35;;
52948;SDS011;38812;50.942;3.644;2023-01-31T02:01:54;44.22;;;8.82;;
52948;SDS011;38812;50.942;3.644;2023-01-31T02:04:21;30.08;;;9.07;;
52948;SDS011;38812;50.942;3.644;2023-01-31T02:06:52;38.38;;;9.10;;
52948;SDS011;38812;50.942;3.644;2023-01-31T02:12:37;26.92;;;6.93;;
52948;SDS011;38812;50.942;3.644;2023-01-31T02:15:03;30.50;;;8.00;;
52948;SDS011;38812;50.942;3.644;2023-01-31T02:17:29;29.25;;;7.78;;
52948;SDS011;38812;50.942;3.644;2023-01-31T02:22:51;23.70;;;7.53;;
52948;SDS011;38812;50.942;3.644;2023-01-31T02:31:02;24.95;;;7.47;;
52948;SDS011;38812;50.942;3.644;2023-01-31T02:33:48;36.78;;;8.75;;
52948;SDS011;38812;50.942;3.644;2023-01-31T02:36:39;33.67;;;10.00;;
52948;SDS011;38812;50.942;3.644;2023-01-31T02:41:49;24.10;;;7.32;;
52948;SDS011;38812;50.942;3.644;2023-01-31T02:44:23;21.25;;;7.68;;
52948;SDS011;38812;50.942;3.644;2023-01-31T02:52:52;34.30;;;7.97;;
52948;SDS011;38812;50.942;3.644;2023-01-31T02:55:34;29.67;;;7.45;;
52948;SDS011;38812;50.942;3.644;2023-01-31T03:01:37;34.17;;;7.50;;
52948;SDS011;38812;50.942;3.644;2023-01-31T03:04:08;31.52;;;7.40;;
52948;SDS011;38812;50.942;3.644;2023-01-31T03:22:47;20.42;;;7.00;;
52948;SDS011;38812;50.942;3.644;2023-01-31T03:25:26;40.72;;;8.60;;
52948;SDS011;38812;50.942;3.644;2023-01-31T03:27:55;28.98;;;7.80;;
52948;SDS011;38812;50.942;3.644;2023-01-31T03:30:29;39.08;;;8.63;;
52948;SDS011;38812;50.942;3.644;2023-01-31T03:32:58;39.75;;;8.85;;
52948;SDS011;38812;50.942;3.644;2023-01-31T03:35:28;29.13;;;8.60;;
52948;SDS011;38812;50.942;3.644;2023-01-31T03:40:31;41.30;;;8.13;;
52948;SDS011;38812;50.942;3.644;2023-01-31T03:43:06;35.03;;;8.75;;
52948;SDS011;38812;50.942;3.644;2023-01-31T03:45:53;26.83;;;8.18;;
52948;SDS011;38812;50.942;3.644;2023-01-31T03:48:27;27.98;;;6.97;;
52948;SDS011;38812;50.942;3.644;2023-01-31T03:50:58;21.73;;;7.22;;
52948;SDS011;38812;50.942;3.644;2023-01-31T03:56:15;36.35;;;7.68;;
52948;SDS011;38812;50.942;3.644;2023-01-31T03:58:49;37.83;;;7.70;;
52948;SDS011;38812;50.942;3.644;2023-01-31T04:01:21;27.23;;;6.30;;
52948;SDS011;38812;50.942;3.644;2023-01-31T04:04:13;31.52;;;6.93;;
52948;SDS011;38812;50.942;3.644;2023-01-31T04:07:01;37.13;;;7.40;;
52948;SDS011;38812;50.942;3.644;2023-01-31T04:09:27;44.30;;;7.03;;
52948;SDS011;38812;50.942;3.644;2023-01-31T04:11:52;34.03;;;7.07;;
52948;SDS011;38812;50.942;3.644;2023-01-31T04:14:18;46.17;;;7.20;;
52948;SDS011;38812;50.942;3.644;2023-01-31T04:16:43;25.75;;;6.88;;
52948;SDS011;38812;50.942;3.644;2023-01-31T04:19:09;24.42;;;6.93;;
52948;SDS011;38812;50.942;3.644;2023-01-31T04:21:35;31.35;;;6.75;;
52948;SDS011;38812;50.942;3.644;2023-01-31T04:24:00;43.60;;;7.18;;
52948;SDS011;38812;50.942;3.644;2023-01-31T04:26:26;21.48;;;6.00;;
52948;SDS011;38812;50.942;3.644;2023-01-31T04:28:51;26.17;;;6.55;;
52948;SDS011;38812;50.942;3.644;2023-01-31T04:31:17;26.55;;;6.88;;
52948;SDS011;38812;50.942;3.644;2023-01-31T04:33:42;27.08;;;6.03;;
52948;SDS011;38812;50.942;3.644;2023-01-31T04:36:08;20.40;;;5.22;;
52948;SDS011;38812;50.942;3.644;2023-01-31T04:38:34;31.98;;;7.50;;
52948;SDS011;38812;50.942;3.644;2023-01-31T04:40:59;25.48;;;5.80;;
52948;SDS011;38812;50.942;3.644;2023-01-31T04:43:25;24.80;;;6.07;;
52948;SDS011;38812;50.942;3.644;2023-01-31T04:45:50;23.92;;;5.95;;
52948;SDS011;38812;50.942;3.644;2023-01-31T04:48:16;31.45;;;6.30;;
52948;SDS011;38812;50.942;3.644;2023-01-31T04:50:41;35.47;;;6.85;;
52948;SDS011;38812;50.942;3.644;2023-01-31T04:53:07;34.72;;;6.75;;
52948;SDS011;38812;50.942;3.644;2023-01-31T04:55:33;26.15;;;5.53;;
52948;SDS011;38812;50.942;3.644;2023-01-31T04:57:59;23.27;;;5.55;;
52948;SDS011;38812;50.942;3.644;2023-01-31T05:00:25;33.05;;;6.85;;
52948;SDS011;38812;50.942;3.644;2023-01-31T05:02:50;36.38;;;6.75;;
52948;SDS011;38812;50.942;3.644;2023-01-31T05:05:17;27.02;;;6.53;;
52948;SDS011;38812;50.942;3.644;2023-01-31T05:07:43;23.70;;;5.15;;
52948;SDS011;38812;50.942;3.644;2023-01-31T05:10:09;25.25;;;7.13;;
52948;SDS011;38812;50.942;3.644;2023-01-31T05:12:35;35.15;;;7.38;;
52948;SDS011;38812;50.942;3.644;2023-01-31T05:15:00;29.95;;;5.97;;
52948;SDS011;38812;50.942;3.644;2023-01-31T05:17:26;25.48;;;6.30;;
52948;SDS011;38812;50.942;3.644;2023-01-31T05:19:54;23.08;;;6.18;;
52948;SDS011;38812;50.942;3.644;2023-01-31T05:22:22;32.22;;;6.20;;
52948;SDS011;38812;50.942;3.644;2023-01-31T05:24:48;29.70;;;6.07;;
52948;SDS011;38812;50.942;3.644;2023-01-31T05:27:14;27.77;;;6.13;;
52948;SDS011;38812;50.942;3.644;2023-01-31T05:29:41;23.35;;;10.05;;
52948;SDS011;38812;50.942;3.644;2023-01-31T05:32:06;22.27;;;5.55;;
52948;SDS011;38812;50.942;3.644;2023-01-31T05:34:32;27.38;;;6.57;;
52948;SDS011;38812;50.942;3.644;2023-01-31T05:36:58;17.02;;;5.20;;
52948;SDS011;38812;50.942;3.644;2023-01-31T05:39:23;30.27;;;5.93;;
52948;SDS011;38812;50.942;3.644;2023-01-31T05:41:49;17.60;;;5.35;;
52948;SDS011;38812;50.942;3.644;2023-01-31T05:44:14;23.77;;;6.03;;
52948;SDS011;38812;50.942;3.644;2023-01-31T05:46:40;19.90;;;5.88;;
52948;SDS011;38812;50.942;3.644;2023-01-31T05:49:05;17.63;;;5.15;;
52948;SDS011;38812;50.942;3.644;2023-01-31T05:51:31;29.42;;;6.57;;
52948;SDS011;38812;50.942;3.644;2023-01-31T05:53:56;22.33;;;5.88;;
52948;SDS011;38812;50.942;3.644;2023-01-31T05:56:22;30.25;;;5.40;;
52948;SDS011;38812;50.942;3.644;2023-01-31T05:58:48;15.93;;;5.25;;
52948;SDS011;38812;50.942;3.644;2023-01-31T06:01:22;25.95;;;6.88;;
52948;SDS011;38812;50.942;3.644;2023-01-31T06:03:49;30.48;;;6.13;;
52948;SDS011;38812;50.942;3.644;2023-01-31T06:06:14;25.70;;;6.20;;
52948;SDS011;38812;50.942;3.644;2023-01-31T06:08:40;22.98;;;5.45;;
52948;SDS011;38812;50.942;3.644;2023-01-31T06:11:08;30.60;;;6.13;;
52948;SDS011;38812;50.942;3.644;2023-01-31T06:13:35;31.17;;;5.80;;
52948;SDS011;38812;50.942;3.644;2023-01-31T06:16:02;25.02;;;8.00;;
52948;SDS011;38812;50.942;3.644;2023-01-31T06:18:27;34.10;;;7.28;;
52948;SDS011;38812;50.942;3.644;2023-01-31T06:20:54;22.67;;;5.93;;
52948;SDS011;38812;50.942;3.644;2023-01-31T06:23:19;25.88;;;5.78;;
52948;SDS011;38812;50.942;3.644;2023-01-31T06:25:51;24.30;;;7.82;;
52948;SDS011;38812;50.942;3.644;2023-01-31T06:30:43;19.90;;;4.43;;
52948;SDS011;38812;50.942;3.644;2023-01-31T06:33:09;23.73;;;6.47;;
52948;SDS011;38812;50.942;3.644;2023-01-31T06:35:35;18.83;;;4.80;;
52948;SDS011;38812;50.942;3.644;2023-01-31T06:38:01;21.80;;;6.15;;
52948;SDS011;38812;50.942;3.644;2023-01-31T06:40:26;24.58;;;4.97;;
52948;SDS011;38812;50.942;3.644;2023-01-31T06:42:52;24.63;;;5.53;;
52948;SDS011;38812;50.942;3.644;2023-01-31T06:45:17;28.63;;;5.03;;
52948;SDS011;38812;50.942;3.644;2023-01-31T06:47:46;28.17;;;5.40;;
52948;SDS011;38812;50.942;3.644;2023-01-31T06:50:11;25.77;;;4.38;;
52948;SDS011;38812;50.942;3.644;2023-01-31T06:52:38;23.70;;;5.55;;
52948;SDS011;38812;50.942;3.644;2023-01-31T06:55:04;26.30;;;6.10;;
52948;SDS011;38812;50.942;3.644;2023-01-31T06:57:29;31.42;;;6.05;;
52948;SDS011;38812;50.942;3.644;2023-01-31T06:59:55;24.98;;;5.80;;
52948;SDS011;38812;50.942;3.644;2023-01-31T07:02:20;19.85;;;5.65;;
52948;SDS011;38812;50.942;3.644;2023-01-31T07:04:45;35.42;;;7.55;;
52948;SDS011;38812;50.942;3.644;2023-01-31T07:07:11;28.35;;;7.57;;
52948;SDS011;38812;50.942;3.644;2023-01-31T07:09:36;19.80;;;5.60;;
52948;SDS011;38812;50.942;3.644;2023-01-31T07:12:02;24.98;;;5.90;;
52948;SDS011;38812;50.942;3.644;2023-01-31T07:14:27;29.35;;;5.60;;
52948;SDS011;38812;50.942;3.644;2023-01-31T07:16:53;28.35;;;7.47;;
52948;SDS011;38812;50.942;3.644;2023-01-31T07:19:18;22.67;;;5.40;;
52948;SDS011;38812;50.942;3.644;2023-01-31T07:21:44;23.38;;;6.13;;
52948;SDS011;38812;50.942;3.644;2023-01-31T07:24:11;28.42;;;5.75;;
52948;SDS011;38812;50.942;3.644;2023-01-31T07:26:36;25.48;;;6.25;;
52948;SDS011;38812;50.942;3.644;2023-01-31T07:29:02;26.77;;;7.03;;
52948;SDS011;38812;50.942;3.644;2023-01-31T07:31:27;30.92;;;5.18;;
52948;SDS011;38812;50.942;3.644;2023-01-31T07:33:52;27.10;;;6.20;;
52948;SDS011;38812;50.942;3.644;2023-01-31T07:36:18;27.77;;;6.22;;
52948;SDS011;38812;50.942;3.644;2023-01-31T07:38:46;18.65;;;5.40;;
52948;SDS011;38812;50.942;3.644;2023-01-31T07:41:12;37.25;;;6.72;;
52948;SDS011;38812;50.942;3.644;2023-01-31T07:43:37;22.83;;;5.38;;
52948;SDS011;38812;50.942;3.644;2023-01-31T07:46:06;25.23;;;4.68;;
52948;SDS011;38812;50.942;3.644;2023-01-31T07:48:35;22.80;;;5.97;;
52948;SDS011;38812;50.942;3.644;2023-01-31T07:51:01;31.88;;;6.03;;
52948;SDS011;38812;50.942;3.644;2023-01-31T07:53:28;21.15;;;4.53;;
52948;SDS011;38812;50.942;3.644;2023-01-31T07:56:03;26.20;;;5.30;;
52948;SDS011;38812;50.942;3.644;2023-01-31T07:58:29;20.73;;;6.38;;
52948;SDS011;38812;50.942;3.644;2023-01-31T08:00:55;23.33;;;5.28;;
52948;SDS011;38812;50.942;3.644;2023-01-31T08:03:38;24.98;;;6.00;;
52948;SDS011;38812;50.942;3.644;2023-01-31T08:06:06;36.30;;;6.85;;
52948;SDS011;38812;50.942;3.644;2023-01-31T08:08:34;20.77;;;5.97;;
52948;SDS011;38812;50.942;3.644;2023-01-31T08:11:00;21.52;;;5.40;;
52948;SDS011;38812;50.942;3.644;2023-01-31T08:13:26;19.25;;;6.13;;
52948;SDS011;38812;50.942;3.644;2023-01-31T08:15:52;17.42;;;5.50;;
52948;SDS011;38812;50.942;3.644;2023-01-31T08:18:18;24.80;;;6.28;;
52948;SDS011;38812;50.942;3.644;2023-01-31T08:20:44;23.85;;;6.13;;
52948;SDS011;38812;50.942;3.644;2023-01-31T08:23:09;37.55;;;7.45;;
52948;SDS011;38812;50.942;3.644;2023-01-31T08:25:34;30.65;;;7.15;;
52948;SDS011;38812;50.942;3.644;2023-01-31T08:28:00;24.77;;;5.13;;
52948;SDS011;38812;50.942;3.644;2023-01-31T08:30:27;23.13;;;5.90;;
52948;SDS011;38812;50.942;3.644;2023-01-31T08:32:53;19.00;;;5.13;;
52948;SDS011;38812;50.942;3.644;2023-01-31T08:35:18;20.83;;;6.60;;
52948;SDS011;38812;50.942;3.644;2023-01-31T08:37:44;21.83;;;5.38;;
52948;SDS011;38812;50.942;3.644;2023-01-31T08:40:09;29.38;;;4.57;;
52948;SDS011;38812;50.942;3.644;2023-01-31T08:42:35;23.83;;;5.75;;
52948;SDS011;38812;50.942;3.644;2023-01-31T08:45:01;27.40;;;5.70;;
52948;SDS011;38812;50.942;3.644;2023-01-31T08:47:26;27.30;;;5.13;;
52948;SDS011;38812;50.942;3.644;2023-01-31T08:49:52;20.67;;;4.43;;
52948;SDS011;38812;50.942;3.644;2023-01-31T08:52:17;20.77;;;5.35;;
52948;SDS011;38812;50.942;3.644;2023-01-31T08:54:42;21.88;;;5.75;;
52948;SDS011;38812;50.942;3.644;2023-01-31T08:57:08;24.15;;;5.25;;
52948;SDS011;38812;50.942;3.644;2023-01-31T08:59:33;15.00;;;3.78;;
52948;SDS011;38812;50.942;3.644;2023-01-31T09:01:58;25.98;;;6.10;;
52948;SDS011;38812;50.942;3.644;2023-01-31T09:04:24;22.88;;;5.40;;
52948;SDS011;38812;50.942;3.644;2023-01-31T09:06:49;28.60;;;7.07;;
52948;SDS011;38812;50.942;3.644;2023-01-31T09:09:15;19.50;;;5.25;;
52948;SDS011;38812;50.942;3.644;2023-01-31T09:11:40;23.23;;;5.22;;
52948;SDS011;38812;50.942;3.644;2023-01-31T09:14:05;24.40;;;5.55;;
52948;SDS011;38812;50.942;3.644;2023-01-31T09:16:31;30.58;;;6.65;;
52948;SDS011;38812;50.942;3.644;2023-01-31T09:18:56;23.30;;;5.28;;
52948;SDS011;38812;50.942;3.644;2023-01-31T09:21:22;23.38;;;4.28;;
52948;SDS011;38812;50.942;3.644;2023-01-31T09:23:52;23.90;;;5.28;;
52948;SDS011;38812;50.942;3.644;2023-01-31T09:26:22;13.30;;;4.45;;
52948;SDS011;38812;50.942;3.644;2023-01-31T09:28:48;31.42;;;6.60;;
52948;SDS011;38812;50.942;3.644;2023-01-31T09:31:16;20.80;;;5.15;;
52948;SDS011;38812;50.942;3.644;2023-01-31T09:33:43;19.05;;;4.72;;
52948;SDS011;38812;50.942;3.644;2023-01-31T09:36:12;16.25;;;3.92;;
52948;SDS011;38812;50.942;3.644;2023-01-31T09:38:39;25.35;;;4.63;;
52948;SDS011;38812;50.942;3.644;2023-01-31T09:41:08;21.00;;;4.95;;
52948;SDS011;38812;50.942;3.644;2023-01-31T09:43:58;25.48;;;5.38;;
52948;SDS011;38812;50.942;3.644;2023-01-31T09:46:31;25.42;;;4.35;;
52948;SDS011;38812;50.942;3.644;2023-01-31T09:49:01;16.25;;;4.90;;
52948;SDS011;38812;50.942;3.644;2023-01-31T09:51:32;21.17;;;5.03;;
52948;SDS011;38812;50.942;3.644;2023-01-31T09:53:59;19.33;;;4.65;;
52948;SDS011;38812;50.942;3.644;2023-01-31T09:56:31;25.33;;;4.85;;
52948;SDS011;38812;50.942;3.644;2023-01-31T10:02:02;25.20;;;5.03;;
52948;SDS011;38812;50.942;3.644;2023-01-31T10:07:12;22.55;;;4.72;;
52948;SDS011;38812;50.942;3.644;2023-01-31T10:09:43;21.85;;;4.75;;
52948;SDS011;38812;50.942;3.644;2023-01-31T10:12:18;18.98;;;4.85;;
52948;SDS011;38812;50.942;3.644;2023-01-31T10:14:50;25.05;;;4.95;;
52948;SDS011;38812;50.942;3.644;2023-01-31T10:20:12;14.35;;;3.70;;
52948;SDS011;38812;50.942;3.644;2023-01-31T10:22:46;22.65;;;5.03;;
52948;SDS011;38812;50.942;3.644;2023-01-31T10:28:12;22.15;;;4.90;;
52948;SDS011;38812;50.942;3.644;2023-01-31T10:33:54;26.35;;;5.50;;
52948;SDS011;38812;50.942;3.644;2023-01-31T10:39:09;22.17;;;4.25;;
52948;SDS011;38812;50.942;3.644;2023-01-31T10:41:50;18.83;;;4.68;;
52948;SDS011;38812;50.942;3.644;2023-01-31T10:44:35;18.63;;;4.18;;
52948;SDS011;38812;50.942;3.644;2023-01-31T10:47:10;22.38;;;4.82;;
52948;SDS011;38812;50.942;3.644;2023-01-31T10:49:37;21.77;;;4.60;;
52948;SDS011;38812;50.942;3.644;2023-01-31T10:57:08;16.90;;;3.53;;
52948;SDS011;38812;50.942;3.644;2023-01-31T10:59:35;20.10;;;3.85;;
52948;SDS011;38812;50.942;3.644;2023-01-31T11:02:08;30.70;;;3.13;;
52948;SDS011;38812;50.942;3.644;2023-01-31T11:04:48;19.48;;;3.85;;
52948;SDS011;38812;50.942;3.644;2023-01-31T11:07:15;16.15;;;3.55;;
52948;SDS011;38812;50.942;3.644;2023-01-31T11:09:42;15.93;;;3.38;;
52948;SDS011;38812;50.942;3.644;2023-01-31T11:12:12;22.45;;;3.70;;
52948;SDS011;38812;50.942;3.644;2023-01-31T11:14:37;18.77;;;3.38;;
52948;SDS011;38812;50.942;3.644;2023-01-31T11:19:47;18.70;;;3.65;;
52948;SDS011;38812;50.942;3.644;2023-01-31T11:22:23;18.50;;;3.60;;
52948;SDS011;38812;50.942;3.644;2023-01-31T11:24:53;22.60;;;4.45;;
52948;SDS011;38812;50.942;3.644;2023-01-31T11:27:28;25.08;;;4.55;;
52948;SDS011;38812;50.942;3.644;2023-01-31T11:30:00;21.50;;;4.85;;
52948;SDS011;38812;50.942;3.644;2023-01-31T11:32:28;23.77;;;4.15;;
52948;SDS011;38812;50.942;3.644;2023-01-31T11:35:21;22.35;;;4.00;;
52948;SDS011;38812;50.942;3.644;2023-01-31T11:37:51;23.77;;;3.28;;
52948;SDS011;38812;50.942;3.644;2023-01-31T11:40:19;25.50;;;4.15;;
52948;SDS011;38812;50.942;3.644;2023-01-31T11:42:55;16.10;;;3.65;;
52948;SDS011;38812;50.942;3.644;2023-01-31T11:48:23;21.40;;;4.35;;
52948;SDS011;38812;50.942;3.644;2023-01-31T11:50:53;25.08;;;3.80;;
52948;SDS011;38812;50.942;3.644;2023-01-31T11:55:49;17.70;;;4.03;;
52948;SDS011;38812;50.942;3.644;2023-01-31T11:58:22;15.73;;;3.75;;
52948;SDS011;38812;50.942;3.644;2023-01-31T12:00:57;21.90;;;4.32;;
52948;SDS011;38812;50.942;3.644;2023-01-31T12:03:25;15.23;;;2.75;;
52948;SDS011;38812;50.942;3.644;2023-01-31T12:05:58;16.52;;;3.05;;
52948;SDS011;38812;50.942;3.644;2023-01-31T12:08:38;18.67;;;2.90;;
52948;SDS011;38812;50.942;3.644;2023-01-31T12:11:27;25.20;;;3.25;;
52948;SDS011;38812;50.942;3.644;2023-01-31T12:13:53;17.15;;;2.47;;
52948;SDS011;38812;50.942;3.644;2023-01-31T12:16:30;22.38;;;3.05;;
52948;SDS011;38812;50.942;3.644;2023-01-31T12:24:33;22.38;;;3.30;;
52948;SDS011;38812;50.942;3.644;2023-01-31T12:30:30;19.10;;;2.90;;
52948;SDS011;38812;50.942;3.644;2023-01-31T12:41:22;16.75;;;3.20;;
52948;SDS011;38812;50.942;3.644;2023-01-31T12:52:21;16.67;;;2.58;;
52948;SDS011;38812;50.942;3.644;2023-01-31T12:55:09;13.63;;;2.90;;
52948;SDS011;38812;50.942;3.644;2023-01-31T13:08:25;29.13;;;4.90;;
52948;SDS011;38812;50.942;3.644;2023-01-31T13:13:56;24.92;;;5.53;;
52948;SDS011;38812;50.942;3.644;2023-01-31T13:16:21;24.48;;;4.07;;
52948;SDS011;38812;50.942;3.644;2023-01-31T13:18:55;26.33;;;4.80;;
52948;SDS011;38812;50.942;3.644;2023-01-31T13:21:26;17.38;;;4.57;;
52948;SDS011;38812;50.942;3.644;2023-01-31T13:23:59;20.73;;;3.75;;
52948;SDS011;38812;50.942;3.644;2023-01-31T13:26:31;22.42;;;4.22;;
52948;SDS011;38812;50.942;3.644;2023-01-31T13:29:02;30.38;;;5.05;;
52948;SDS011;38812;50.942;3.644;2023-01-31T13:31:39;26.00;;;4.07;;
52948;SDS011;38812;50.942;3.644;2023-01-31T13:34:23;25.83;;;3.72;;
52948;SDS011;38812;50.942;3.644;2023-01-31T13:36:56;22.27;;;4.43;;
52948;SDS011;38812;50.942;3.644;2023-01-31T13:39:35;16.17;;;3.70;;
52948;SDS011;38812;50.942;3.644;2023-01-31T13:42:04;24.95;;;4.25;;
52948;SDS011;38812;50.942;3.644;2023-01-31T13:44:30;22.58;;;4.07;;
52948;SDS011;38812;50.942;3.644;2023-01-31T13:47:03;25.77;;;4.63;;
52948;SDS011;38812;50.942;3.644;2023-01-31T13:52:38;26.13;;;4.25;;
52948;SDS011;38812;50.942;3.644;2023-01-31T13:55:14;16.33;;;2.83;;
52948;SDS011;38812;50.942;3.644;2023-01-31T13:57:50;22.10;;;3.35;;
52948;SDS011;38812;50.942;3.644;2023-01-31T14:03:02;15.15;;;2.70;;
52948;SDS011;38812;50.942;3.644;2023-01-31T14:10:50;14.23;;;2.22;;
52948;SDS011;38812;50.942;3.644;2023-01-31T14:13:22;19.30;;;3.47;;
52948;SDS011;38812;50.942;3.644;2023-01-31T14:15:57;9.40;;;2.20;;
52948;SDS011;38812;50.942;3.644;2023-01-31T14:18:36;12.85;;;2.53;;
52948;SDS011;38812;50.942;3.644;2023-01-31T14:28:55;16.85;;;2.88;;
52948;SDS011;38812;50.942;3.644;2023-01-31T14:31:20;17.10;;;2.60;;
52948;SDS011;38812;50.942;3.644;2023-01-31T14:33:47;9.85;;;2.80;;
52948;SDS011;38812;50.942;3.644;2023-01-31T14:47:20;16.73;;;3.38;;
52948;SDS011;38812;50.942;3.644;2023-01-31T14:53:13;15.85;;;3.08;;
52948;SDS011;38812;50.942;3.644;2023-01-31T14:58:26;12.63;;;2.25;;
52948;SDS011;38812;50.942;3.644;2023-01-31T15:00:56;19.35;;;3.75;;
52948;SDS011;38812;50.942;3.644;2023-01-31T15:03:33;15.95;;;3.03;;
52948;SDS011;38812;50.942;3.644;2023-01-31T15:06:22;14.15;;;3.08;;
52948;SDS011;38812;50.942;3.644;2023-01-31T15:09:16;11.40;;;3.88;;
52948;SDS011;38812;50.942;3.644;2023-01-31T15:11:40;14.38;;;2.60;;
52948;SDS011;38812;50.942;3.644;2023-01-31T15:14:21;10.32;;;2.05;;
52948;SDS011;38812;50.942;3.644;2023-01-31T15:16:54;13.82;;;2.72;;
52948;SDS011;38812;50.942;3.644;2023-01-31T15:19:22;10.32;;;2.35;;
52948;SDS011;38812;50.942;3.644;2023-01-31T15:21:51;12.43;;;2.75;;
52948;SDS011;38812;50.942;3.644;2023-01-31T15:26:59;13.77;;;3.25;;
52948;SDS011;38812;50.942;3.644;2023-01-31T15:29:28;18.60;;;5.28;;
52948;SDS011;38812;50.942;3.644;2023-01-31T15:32:01;30.60;;;8.35;;
52948;SDS011;38812;50.942;3.644;2023-01-31T15:34:38;16.75;;;5.13;;
52948;SDS011;38812;50.942;3.644;2023-01-31T15:37:17;11.65;;;3.38;;
52948;SDS011;38812;50.942;3.644;2023-01-31T15:39:57;13.10;;;4.00;;
52948;SDS011;38812;50.942;3.644;2023-01-31T15:48:15;8.75;;;2.92;;
52948;SDS011;38812;50.942;3.644;2023-01-31T15:50:51;15.13;;;3.60;;
52948;SDS011;38812;50.942;3.644;2023-01-31T15:53:26;13.02;;;3.33;;
52948;SDS011;38812;50.942;3.644;2023-01-31T15:55:54;14.50;;;3.30;;
52948;SDS011;38812;50.942;3.644;2023-01-31T15:58:23;15.18;;;3.05;;
52948;SDS011;38812;50.942;3.644;2023-01-31T16:00:55;16.65;;;3.20;;
52948;SDS011;38812;50.942;3.644;2023-01-31T16:03:27;14.50;;;3.10;;
52948;SDS011;38812;50.942;3.644;2023-01-31T16:05:58;16.00;;;2.85;;
52948;SDS011;38812;50.942;3.644;2023-01-31T16:08:31;11.38;;;4.30;;
52948;SDS011;38812;50.942;3.644;2023-01-31T16:10:58;14.27;;;3.20;;
52948;SDS011;38812;50.942;3.644;2023-01-31T16:13:26;8.98;;;3.45;;
52948;SDS011;38812;50.942;3.644;2023-01-31T16:15:52;22.02;;;10.57;;
52948;SDS011;38812;50.942;3.644;2023-01-31T16:18:18;13.85;;;3.22;;
52948;SDS011;38812;50.942;3.644;2023-01-31T16:20:48;10.45;;;5.22;;
52948;SDS011;38812;50.942;3.644;2023-01-31T16:28:51;13.27;;;3.80;;
52948;SDS011;38812;50.942;3.644;2023-01-31T16:31:21;15.55;;;3.55;;
52948;SDS011;38812;50.942;3.644;2023-01-31T16:33:48;23.55;;;8.05;;
52948;SDS011;38812;50.942;3.644;2023-01-31T16:36:17;10.18;;;3.60;;
52948;SDS011;38812;50.942;3.644;2023-01-31T16:44:16;16.15;;;2.53;;
52948;SDS011;38812;50.942;3.644;2023-01-31T16:46:44;8.60;;;2.92;;
52948;SDS011;38812;50.942;3.644;2023-01-31T16:51:48;16.25;;;3.47;;
52948;SDS011;38812;50.942;3.644;2023-01-31T17:02:17;13.32;;;2.95;;
52948;SDS011;38812;50.942;3.644;2023-01-31T17:04:53;9.50;;;3.95;;
52948;SDS011;38812;50.942;3.644;2023-01-31T17:07:29;9.93;;;2.75;;
52948;SDS011;38812;50.942;3.644;2023-01-31T17:10:00;10.23;;;2.55;;
52948;SDS011;38812;50.942;3.644;2023-01-31T17:12:29;11.57;;;3.15;;
52948;SDS011;38812;50.942;3.644;2023-01-31T17:14:58;14.57;;;3.50;;
52948;SDS011;38812;50.942;3.644;2023-01-31T17:17:25;16.55;;;3.42;;
52948;SDS011;38812;50.942;3.644;2023-01-31T17:19:51;15.30;;;4.20;;
52948;SDS011;38812;50.942;3.644;2023-01-31T17:22:17;13.68;;;3.30;;
52948;SDS011;38812;50.942;3.644;2023-01-31T17:24:42;7.20;;;3.22;;
52948;SDS011;38812;50.942;3.644;2023-01-31T17:27:14;13.15;;;4.22;;
52948;SDS011;38812;50.942;3.644;2023-01-31T17:29:41;14.52;;;3.63;;
52948;SDS011;38812;50.942;3.644;2023-01-31T17:32:09;18.55;;;4.13;;
52948;SDS011;38812;50.942;3.644;2023-01-31T17:34:36;17.90;;;4.57;;
52948;SDS011;38812;50.942;3.644;2023-01-31T17:37:01;11.48;;;3.25;;
52948;SDS011;38812;50.942;3.644;2023-01-31T17:39:27;13.85;;;3.42;;
52948;SDS011;38812;50.942;3.644;2023-01-31T17:41:52;14.07;;;4.72;;
52948;SDS011;38812;50.942;3.644;2023-01-31T17:44:17;10.20;;;4.15;;
52948;SDS011;38812;50.942;3.644;2023-01-31T17:46:43;15.55;;;4.00;;
52948;SDS011;38812;50.942;3.644;2023-01-31T17:49:08;13.77;;;3.78;;
52948;SDS011;38812;50.942;3.644;2023-01-31T17:51:34;14.00;;;4.65;;
52948;SDS011;38812;50.942;3.644;2023-01-31T17:53:59;14.23;;;4.43;;
52948;SDS011;38812;50.942;3.644;2023-01-31T17:56:24;16.27;;;3.40;;